sensor_id;sensor_type;location;lat;lon;timestamp;P1;durP1;ratioP1;P2;durP2;ratioP2
74213;SDS011;62576;55.694;37.494;2022-08-05T00:01:11;28.77;;;15.88;;
74213;SDS011;62576;55.694;37.494;2022-08-05T00:03:40;25.33;;;15.18;;
74213;SDS011;62576;55.694;37.494;2022-08-05T00:06:09;24.13;;;15.43;;
74213;SDS011;62576;55.694;37.494;2022-08-05T00:08:38;23.90;;;14.88;;
74213;SDS011;62576;55.694;37.494;2022-08-05T00:11:07;28.00;;;15.40;;
74213;SDS011;62576;55.694;37.494;2022-08-05T00:13:39;26.30;;;15.52;;
74213;SDS011;62576;55.694;37.494;2022-08-05T00:16:09;24.98;;;15.40;;
74213;SDS011;62576;55.694;37.494;2022-08-05T00:18:39;25.70;;;15.75;;
74213;SDS011;62576;55.694;37.494;2022-08-05T00:21:10;31.55;;;15.52;;
74213;SDS011;62576;55.694;37.494;2022-08-05T00:23:39;22.00;;;14.98;;
74213;SDS011;62576;55.694;37.494;2022-08-05T00:26:09;23.60;;;14.80;;
74213;SDS011;62576;55.694;37.494;2022-08-05T00:28:39;30.73;;;15.98;;
74213;SDS011;62576;55.694;37.494;2022-08-05T00:31:07;25.08;;;15.05;;
74213;SDS011;62576;55.694;37.494;2022-08-05T00:33:36;24.17;;;15.30;;
74213;SDS011;62576;55.694;37.494;2022-08-05T00:36:04;28.20;;;15.07;;
74213;SDS011;62576;55.694;37.494;2022-08-05T00:38:30;25.55;;;15.55;;
74213;SDS011;62576;55.694;37.494;2022-08-05T00:40:59;29.40;;;15.82;;
74213;SDS011;62576;55.694;37.494;2022-08-05T00:43:27;24.75;;;15.80;;
74213;SDS011;62576;55.694;37.494;2022-08-05T00:45:57;25.00;;;15.77;;
74213;SDS011;62576;55.694;37.494;2022-08-05T00:48:26;24.15;;;15.63;;
74213;SDS011;62576;55.694;37.494;2022-08-05T00:50:54;30.73;;;15.27;;
74213;SDS011;62576;55.694;37.494;2022-08-05T00:53:23;30.98;;;16.25;;
74213;SDS011;62576;55.694;37.494;2022-08-05T00:55:51;27.80;;;15.85;;
74213;SDS011;62576;55.694;37.494;2022-08-05T00:58:20;27.10;;;15.88;;
74213;SDS011;62576;55.694;37.494;2022-08-05T01:00:48;25.63;;;16.08;;
74213;SDS011;62576;55.694;37.494;2022-08-05T01:03:17;28.13;;;15.63;;
74213;SDS011;62576;55.694;37.494;2022-08-05T01:05:45;29.30;;;16.58;;
74213;SDS011;62576;55.694;37.494;2022-08-05T01:08:14;30.67;;;17.38;;
74213;SDS011;62576;55.694;37.494;2022-08-05T01:10:43;29.17;;;17.38;;
74213;SDS011;62576;55.694;37.494;2022-08-05T01:13:20;30.52;;;16.48;;
74213;SDS011;62576;55.694;37.494;2022-08-05T01:15:55;29.58;;;18.33;;
74213;SDS011;62576;55.694;37.494;2022-08-05T01:18:31;28.45;;;16.45;;
74213;SDS011;62576;55.694;37.494;2022-08-05T01:26:39;29.83;;;17.95;;
74213;SDS011;62576;55.694;37.494;2022-08-05T01:29:12;27.48;;;17.98;;
74213;SDS011;62576;55.694;37.494;2022-08-05T01:31:53;35.35;;;18.17;;
74213;SDS011;62576;55.694;37.494;2022-08-05T01:34:40;33.28;;;18.42;;
74213;SDS011;62576;55.694;37.494;2022-08-05T01:37:18;31.27;;;18.00;;
74213;SDS011;62576;55.694;37.494;2022-08-05T01:39:52;33.38;;;18.60;;
74213;SDS011;62576;55.694;37.494;2022-08-05T01:42:22;28.80;;;18.02;;
74213;SDS011;62576;55.694;37.494;2022-08-05T01:44:53;33.17;;;18.40;;
74213;SDS011;62576;55.694;37.494;2022-08-05T01:47:23;29.30;;;18.70;;
74213;SDS011;62576;55.694;37.494;2022-08-05T01:49:53;31.15;;;18.42;;
74213;SDS011;62576;55.694;37.494;2022-08-05T01:52:23;31.13;;;18.00;;
74213;SDS011;62576;55.694;37.494;2022-08-05T01:54:57;31.38;;;17.90;;
74213;SDS011;62576;55.694;37.494;2022-08-05T01:57:30;28.05;;;18.73;;
74213;SDS011;62576;55.694;37.494;2022-08-05T02:00:02;31.15;;;18.23;;
74213;SDS011;62576;55.694;37.494;2022-08-05T02:02:32;32.10;;;18.03;;
74213;SDS011;62576;55.694;37.494;2022-08-05T02:05:04;29.77;;;18.08;;
74213;SDS011;62576;55.694;37.494;2022-08-05T02:07:35;29.40;;;19.83;;
74213;SDS011;62576;55.694;37.494;2022-08-05T02:10:05;26.75;;;18.27;;
74213;SDS011;62576;55.694;37.494;2022-08-05T02:12:45;32.03;;;18.35;;
74213;SDS011;62576;55.694;37.494;2022-08-05T02:18:03;30.88;;;18.42;;
74213;SDS011;62576;55.694;37.494;2022-08-05T02:23:36;28.80;;;18.75;;
74213;SDS011;62576;55.694;37.494;2022-08-05T02:26:08;31.80;;;19.52;;
74213;SDS011;62576;55.694;37.494;2022-08-05T02:28:40;37.92;;;19.60;;
74213;SDS011;62576;55.694;37.494;2022-08-05T02:31:10;32.88;;;19.52;;
74213;SDS011;62576;55.694;37.494;2022-08-05T02:33:44;34.60;;;19.02;;
74213;SDS011;62576;55.694;37.494;2022-08-05T02:36:18;35.75;;;19.60;;
74213;SDS011;62576;55.694;37.494;2022-08-05T02:38:47;32.45;;;19.98;;
74213;SDS011;62576;55.694;37.494;2022-08-05T02:41:16;36.28;;;19.33;;
74213;SDS011;62576;55.694;37.494;2022-08-05T02:43:46;36.75;;;20.10;;
74213;SDS011;62576;55.694;37.494;2022-08-05T02:46:16;35.85;;;19.75;;
74213;SDS011;62576;55.694;37.494;2022-08-05T02:48:47;30.42;;;19.15;;
74213;SDS011;62576;55.694;37.494;2022-08-05T02:51:16;32.83;;;19.38;;
74213;SDS011;62576;55.694;37.494;2022-08-05T02:53:46;33.42;;;19.35;;
74213;SDS011;62576;55.694;37.494;2022-08-05T02:56:16;35.25;;;18.98;;
74213;SDS011;62576;55.694;37.494;2022-08-05T02:58:45;36.17;;;19.58;;
74213;SDS011;62576;55.694;37.494;2022-08-05T03:01:17;33.13;;;19.20;;
74213;SDS011;62576;55.694;37.494;2022-08-05T03:03:51;36.03;;;19.63;;
74213;SDS011;62576;55.694;37.494;2022-08-05T03:06:22;30.17;;;19.95;;
74213;SDS011;62576;55.694;37.494;2022-08-05T03:08:51;34.00;;;20.50;;
74213;SDS011;62576;55.694;37.494;2022-08-05T03:11:21;36.45;;;19.83;;
74213;SDS011;62576;55.694;37.494;2022-08-05T03:13:51;35.53;;;20.70;;
74213;SDS011;62576;55.694;37.494;2022-08-05T03:16:21;35.45;;;19.67;;
74213;SDS011;62576;55.694;37.494;2022-08-05T03:18:49;31.20;;;19.77;;
74213;SDS011;62576;55.694;37.494;2022-08-05T03:21:18;36.03;;;20.20;;
74213;SDS011;62576;55.694;37.494;2022-08-05T03:23:47;35.20;;;20.35;;
74213;SDS011;62576;55.694;37.494;2022-08-05T03:26:15;33.55;;;21.20;;
74213;SDS011;62576;55.694;37.494;2022-08-05T03:28:44;32.85;;;20.70;;
74213;SDS011;62576;55.694;37.494;2022-08-05T03:31:13;34.42;;;20.42;;
74213;SDS011;62576;55.694;37.494;2022-08-05T03:33:42;35.50;;;20.88;;
74213;SDS011;62576;55.694;37.494;2022-08-05T03:36:11;34.40;;;20.10;;
74213;SDS011;62576;55.694;37.494;2022-08-05T03:38:40;34.50;;;20.23;;
74213;SDS011;62576;55.694;37.494;2022-08-05T03:41:09;34.80;;;21.38;;
74213;SDS011;62576;55.694;37.494;2022-08-05T03:43:38;42.17;;;21.80;;
74213;SDS011;62576;55.694;37.494;2022-08-05T03:46:06;34.90;;;20.27;;
74213;SDS011;62576;55.694;37.494;2022-08-05T03:48:35;39.15;;;20.42;;
74213;SDS011;62576;55.694;37.494;2022-08-05T03:51:11;36.05;;;20.33;;
74213;SDS011;62576;55.694;37.494;2022-08-05T03:56:27;36.97;;;21.38;;
74213;SDS011;62576;55.694;37.494;2022-08-05T03:59:00;35.78;;;21.75;;
74213;SDS011;62576;55.694;37.494;2022-08-05T04:01:35;40.88;;;20.40;;
74213;SDS011;62576;55.694;37.494;2022-08-05T04:04:06;37.75;;;20.63;;
74213;SDS011;62576;55.694;37.494;2022-08-05T04:06:37;32.92;;;21.15;;
74213;SDS011;62576;55.694;37.494;2022-08-05T04:09:07;36.10;;;21.17;;
74213;SDS011;62576;55.694;37.494;2022-08-05T04:11:37;33.58;;;20.45;;
74213;SDS011;62576;55.694;37.494;2022-08-05T04:14:06;33.13;;;19.35;;
74213;SDS011;62576;55.694;37.494;2022-08-05T04:16:36;32.65;;;19.55;;
74213;SDS011;62576;55.694;37.494;2022-08-05T04:19:05;33.70;;;19.38;;
74213;SDS011;62576;55.694;37.494;2022-08-05T04:21:33;33.38;;;19.70;;
74213;SDS011;62576;55.694;37.494;2022-08-05T04:24:04;32.88;;;19.80;;
74213;SDS011;62576;55.694;37.494;2022-08-05T04:26:36;32.40;;;19.13;;
74213;SDS011;62576;55.694;37.494;2022-08-05T04:29:05;33.58;;;19.70;;
74213;SDS011;62576;55.694;37.494;2022-08-05T04:31:33;34.05;;;19.75;;
74213;SDS011;62576;55.694;37.494;2022-08-05T04:34:02;31.38;;;18.95;;
74213;SDS011;62576;55.694;37.494;2022-08-05T04:36:30;32.80;;;19.15;;
74213;SDS011;62576;55.694;37.494;2022-08-05T04:38:56;29.73;;;17.75;;
74213;SDS011;62576;55.694;37.494;2022-08-05T04:41:24;30.10;;;18.55;;
74213;SDS011;62576;55.694;37.494;2022-08-05T04:43:53;33.67;;;18.25;;
74213;SDS011;62576;55.694;37.494;2022-08-05T04:46:21;26.55;;;18.15;;
74213;SDS011;62576;55.694;37.494;2022-08-05T04:48:50;38.40;;;18.55;;
74213;SDS011;62576;55.694;37.494;2022-08-05T04:51:19;32.85;;;17.38;;
74213;SDS011;62576;55.694;37.494;2022-08-05T04:53:47;31.38;;;17.95;;
74213;SDS011;62576;55.694;37.494;2022-08-05T04:56:16;24.20;;;16.27;;
74213;SDS011;62576;55.694;37.494;2022-08-05T04:58:44;25.67;;;16.30;;
74213;SDS011;62576;55.694;37.494;2022-08-05T05:01:13;27.27;;;15.95;;
74213;SDS011;62576;55.694;37.494;2022-08-05T05:03:41;26.17;;;15.07;;
74213;SDS011;62576;55.694;37.494;2022-08-05T05:06:10;22.70;;;15.40;;
74213;SDS011;62576;55.694;37.494;2022-08-05T05:08:39;24.00;;;16.10;;
74213;SDS011;62576;55.694;37.494;2022-08-05T05:11:05;25.77;;;15.48;;
74213;SDS011;62576;55.694;37.494;2022-08-05T05:13:34;21.80;;;14.35;;
74213;SDS011;62576;55.694;37.494;2022-08-05T05:16:03;22.15;;;15.60;;
74213;SDS011;62576;55.694;37.494;2022-08-05T05:18:32;25.48;;;15.63;;
74213;SDS011;62576;55.694;37.494;2022-08-05T05:21:01;22.70;;;14.85;;
74213;SDS011;62576;55.694;37.494;2022-08-05T05:23:30;21.15;;;14.30;;
74213;SDS011;62576;55.694;37.494;2022-08-05T05:25:59;20.20;;;14.90;;
74213;SDS011;62576;55.694;37.494;2022-08-05T05:28:30;22.23;;;14.60;;
74213;SDS011;62576;55.694;37.494;2022-08-05T05:30:59;25.13;;;14.80;;
74213;SDS011;62576;55.694;37.494;2022-08-05T05:33:27;22.52;;;14.40;;
74213;SDS011;62576;55.694;37.494;2022-08-05T05:35:56;24.17;;;14.35;;
74213;SDS011;62576;55.694;37.494;2022-08-05T05:38:22;23.25;;;14.27;;
74213;SDS011;62576;55.694;37.494;2022-08-05T05:40:50;22.50;;;13.70;;
74213;SDS011;62576;55.694;37.494;2022-08-05T05:43:18;24.17;;;14.55;;
74213;SDS011;62576;55.694;37.494;2022-08-05T05:45:47;24.30;;;13.80;;
74213;SDS011;62576;55.694;37.494;2022-08-05T05:48:16;25.70;;;13.57;;
74213;SDS011;62576;55.694;37.494;2022-08-05T05:50:44;22.42;;;13.93;;
74213;SDS011;62576;55.694;37.494;2022-08-05T05:53:13;25.30;;;13.57;;
74213;SDS011;62576;55.694;37.494;2022-08-05T05:55:42;23.13;;;13.82;;
74213;SDS011;62576;55.694;37.494;2022-08-05T05:58:12;22.42;;;13.05;;
74213;SDS011;62576;55.694;37.494;2022-08-05T06:00:40;20.50;;;12.85;;
74213;SDS011;62576;55.694;37.494;2022-08-05T06:03:09;20.45;;;12.88;;
74213;SDS011;62576;55.694;37.494;2022-08-05T06:05:37;21.23;;;12.32;;
74213;SDS011;62576;55.694;37.494;2022-08-05T06:08:06;20.60;;;11.95;;
74213;SDS011;62576;55.694;37.494;2022-08-05T06:10:35;25.73;;;12.45;;
74213;SDS011;62576;55.694;37.494;2022-08-05T06:13:03;23.50;;;11.50;;
74213;SDS011;62576;55.694;37.494;2022-08-05T06:15:32;25.05;;;12.20;;
74213;SDS011;62576;55.694;37.494;2022-08-05T06:18:00;24.40;;;11.63;;
74213;SDS011;62576;55.694;37.494;2022-08-05T06:20:29;26.45;;;11.77;;
74213;SDS011;62576;55.694;37.494;2022-08-05T06:22:58;22.52;;;11.80;;
74213;SDS011;62576;55.694;37.494;2022-08-05T06:25:26;19.98;;;11.80;;
74213;SDS011;62576;55.694;37.494;2022-08-05T06:27:55;20.92;;;11.23;;
74213;SDS011;62576;55.694;37.494;2022-08-05T06:30:23;24.20;;;11.23;;
74213;SDS011;62576;55.694;37.494;2022-08-05T06:32:54;21.27;;;11.10;;
74213;SDS011;62576;55.694;37.494;2022-08-05T06:35:22;21.95;;;10.65;;
74213;SDS011;62576;55.694;37.494;2022-08-05T06:37:51;25.98;;;11.40;;
74213;SDS011;62576;55.694;37.494;2022-08-05T06:40:19;22.48;;;10.75;;
74213;SDS011;62576;55.694;37.494;2022-08-05T06:42:48;18.52;;;10.23;;
74213;SDS011;62576;55.694;37.494;2022-08-05T06:45:18;17.63;;;9.43;;
74213;SDS011;62576;55.694;37.494;2022-08-05T06:47:51;13.80;;;8.50;;
74213;SDS011;62576;55.694;37.494;2022-08-05T06:50:19;16.85;;;8.30;;
74213;SDS011;62576;55.694;37.494;2022-08-05T06:52:48;14.73;;;8.73;;
74213;SDS011;62576;55.694;37.494;2022-08-05T06:55:16;13.38;;;8.07;;
74213;SDS011;62576;55.694;37.494;2022-08-05T06:57:45;15.65;;;7.80;;
74213;SDS011;62576;55.694;37.494;2022-08-05T07:00:14;12.90;;;8.40;;
74213;SDS011;62576;55.694;37.494;2022-08-05T07:02:45;15.10;;;8.25;;
74213;SDS011;62576;55.694;37.494;2022-08-05T07:05:14;17.08;;;8.45;;
74213;SDS011;62576;55.694;37.494;2022-08-05T07:07:43;13.07;;;8.48;;
74213;SDS011;62576;55.694;37.494;2022-08-05T07:10:13;13.88;;;8.25;;
74213;SDS011;62576;55.694;37.494;2022-08-05T07:12:42;18.75;;;8.35;;
74213;SDS011;62576;55.694;37.494;2022-08-05T07:15:29;14.35;;;7.97;;
74213;SDS011;62576;55.694;37.494;2022-08-05T07:18:16;14.52;;;8.20;;
74213;SDS011;62576;55.694;37.494;2022-08-05T07:20:45;16.42;;;8.40;;
74213;SDS011;62576;55.694;37.494;2022-08-05T07:23:13;15.52;;;8.43;;
74213;SDS011;62576;55.694;37.494;2022-08-05T07:25:42;17.23;;;8.20;;
74213;SDS011;62576;55.694;37.494;2022-08-05T07:28:10;15.25;;;8.38;;
74213;SDS011;62576;55.694;37.494;2022-08-05T07:30:39;15.18;;;8.05;;
74213;SDS011;62576;55.694;37.494;2022-08-05T07:33:09;17.13;;;8.25;;
74213;SDS011;62576;55.694;37.494;2022-08-05T07:35:38;17.60;;;8.52;;
74213;SDS011;62576;55.694;37.494;2022-08-05T07:38:07;12.50;;;7.53;;
74213;SDS011;62576;55.694;37.494;2022-08-05T07:40:36;18.23;;;8.30;;
74213;SDS011;62576;55.694;37.494;2022-08-05T07:43:04;13.25;;;7.68;;
74213;SDS011;62576;55.694;37.494;2022-08-05T07:45:33;12.85;;;7.72;;
74213;SDS011;62576;55.694;37.494;2022-08-05T07:48:01;12.98;;;7.90;;
74213;SDS011;62576;55.694;37.494;2022-08-05T07:50:31;16.85;;;7.72;;
74213;SDS011;62576;55.694;37.494;2022-08-05T07:52:59;13.30;;;8.00;;
74213;SDS011;62576;55.694;37.494;2022-08-05T07:55:28;16.02;;;8.10;;
74213;SDS011;62576;55.694;37.494;2022-08-05T07:57:58;13.40;;;7.60;;
74213;SDS011;62576;55.694;37.494;2022-08-05T08:00:26;11.77;;;7.80;;
74213;SDS011;62576;55.694;37.494;2022-08-05T08:02:55;19.23;;;8.18;;
74213;SDS011;62576;55.694;37.494;2022-08-05T08:05:30;12.70;;;7.60;;
74213;SDS011;62576;55.694;37.494;2022-08-05T08:07:59;13.32;;;7.30;;
74213;SDS011;62576;55.694;37.494;2022-08-05T08:10:28;12.57;;;7.68;;
74213;SDS011;62576;55.694;37.494;2022-08-05T08:12:57;10.77;;;7.78;;
74213;SDS011;62576;55.694;37.494;2022-08-05T08:15:25;17.10;;;8.07;;
74213;SDS011;62576;55.694;37.494;2022-08-05T08:17:54;17.55;;;8.05;;
74213;SDS011;62576;55.694;37.494;2022-08-05T08:20:23;13.10;;;7.90;;
74213;SDS011;62576;55.694;37.494;2022-08-05T08:22:53;15.90;;;9.13;;
74213;SDS011;62576;55.694;37.494;2022-08-05T08:25:24;12.80;;;7.82;;
74213;SDS011;62576;55.694;37.494;2022-08-05T08:27:53;11.38;;;6.65;;
74213;SDS011;62576;55.694;37.494;2022-08-05T08:30:22;10.77;;;7.00;;
74213;SDS011;62576;55.694;37.494;2022-08-05T08:32:50;11.77;;;6.88;;
74213;SDS011;62576;55.694;37.494;2022-08-05T08:35:19;12.80;;;6.60;;
74213;SDS011;62576;55.694;37.494;2022-08-05T08:37:47;8.90;;;6.45;;
74213;SDS011;62576;55.694;37.494;2022-08-05T08:40:16;8.40;;;6.57;;
74213;SDS011;62576;55.694;37.494;2022-08-05T08:42:45;11.10;;;6.43;;
74213;SDS011;62576;55.694;37.494;2022-08-05T08:45:18;12.70;;;6.70;;
74213;SDS011;62576;55.694;37.494;2022-08-05T08:47:49;10.13;;;6.85;;
74213;SDS011;62576;55.694;37.494;2022-08-05T08:50:19;11.43;;;7.90;;
74213;SDS011;62576;55.694;37.494;2022-08-05T08:52:49;13.35;;;6.93;;
74213;SDS011;62576;55.694;37.494;2022-08-05T08:55:23;16.13;;;7.57;;
74213;SDS011;62576;55.694;37.494;2022-08-05T08:57:52;10.05;;;6.60;;
74213;SDS011;62576;55.694;37.494;2022-08-05T09:00:21;10.85;;;6.82;;
74213;SDS011;62576;55.694;37.494;2022-08-05T09:02:49;13.15;;;7.15;;
74213;SDS011;62576;55.694;37.494;2022-08-05T09:05:23;12.88;;;7.03;;
74213;SDS011;62576;55.694;37.494;2022-08-05T09:07:52;13.35;;;7.22;;
74213;SDS011;62576;55.694;37.494;2022-08-05T09:10:21;10.35;;;7.38;;
74213;SDS011;62576;55.694;37.494;2022-08-05T09:12:50;10.95;;;7.00;;
74213;SDS011;62576;55.694;37.494;2022-08-05T09:15:19;9.80;;;7.00;;
74213;SDS011;62576;55.694;37.494;2022-08-05T09:17:47;16.67;;;7.13;;
74213;SDS011;62576;55.694;37.494;2022-08-05T09:20:17;10.77;;;6.82;;
74213;SDS011;62576;55.694;37.494;2022-08-05T09:25:51;11.48;;;7.28;;
74213;SDS011;62576;55.694;37.494;2022-08-05T09:28:32;11.80;;;6.85;;
74213;SDS011;62576;55.694;37.494;2022-08-05T09:31:03;8.90;;;6.80;;
74213;SDS011;62576;55.694;37.494;2022-08-05T09:36:19;9.32;;;6.65;;
74213;SDS011;62576;55.694;37.494;2022-08-05T09:38:58;11.63;;;6.97;;
74213;SDS011;62576;55.694;37.494;2022-08-05T09:41:32;13.68;;;7.03;;
74213;SDS011;62576;55.694;37.494;2022-08-05T09:44:01;12.07;;;7.20;;
74213;SDS011;62576;55.694;37.494;2022-08-05T09:46:31;9.35;;;6.80;;
74213;SDS011;62576;55.694;37.494;2022-08-05T09:49:01;9.95;;;6.93;;
74213;SDS011;62576;55.694;37.494;2022-08-05T09:51:35;8.77;;;6.95;;
74213;SDS011;62576;55.694;37.494;2022-08-05T09:56:37;10.57;;;7.30;;
74213;SDS011;62576;55.694;37.494;2022-08-05T09:59:07;11.40;;;7.78;;
74213;SDS011;62576;55.694;37.494;2022-08-05T10:01:40;8.77;;;7.13;;
74213;SDS011;62576;55.694;37.494;2022-08-05T10:04:11;13.65;;;7.57;;
74213;SDS011;62576;55.694;37.494;2022-08-05T10:06:42;10.85;;;7.07;;
74213;SDS011;62576;55.694;37.494;2022-08-05T10:09:24;9.07;;;7.30;;
74213;SDS011;62576;55.694;37.494;2022-08-05T10:11:52;11.27;;;8.45;;
74213;SDS011;62576;55.694;37.494;2022-08-05T10:16:51;12.77;;;7.93;;
74213;SDS011;62576;55.694;37.494;2022-08-05T10:19:24;15.52;;;8.25;;
74213;SDS011;62576;55.694;37.494;2022-08-05T10:21:53;11.47;;;7.90;;
74213;SDS011;62576;55.694;37.494;2022-08-05T10:24:21;9.13;;;7.60;;
74213;SDS011;62576;55.694;37.494;2022-08-05T10:26:50;11.77;;;7.68;;
74213;SDS011;62576;55.694;37.494;2022-08-05T10:29:21;12.30;;;7.90;;
74213;SDS011;62576;55.694;37.494;2022-08-05T10:31:50;11.70;;;8.05;;
74213;SDS011;62576;55.694;37.494;2022-08-05T10:34:19;10.70;;;8.35;;
74213;SDS011;62576;55.694;37.494;2022-08-05T10:36:48;17.30;;;8.02;;
74213;SDS011;62576;55.694;37.494;2022-08-05T10:39:18;9.63;;;7.55;;
74213;SDS011;62576;55.694;37.494;2022-08-05T10:44:30;12.85;;;8.43;;
74213;SDS011;62576;55.694;37.494;2022-08-05T10:47:30;11.13;;;8.10;;
74213;SDS011;62576;55.694;37.494;2022-08-05T10:50:06;11.80;;;8.32;;
74213;SDS011;62576;55.694;37.494;2022-08-05T10:52:46;11.55;;;8.48;;
74213;SDS011;62576;55.694;37.494;2022-08-05T10:55:26;11.02;;;8.20;;
74213;SDS011;62576;55.694;37.494;2022-08-05T10:58:07;11.07;;;7.97;;
74213;SDS011;62576;55.694;37.494;2022-08-05T11:00:50;11.85;;;8.18;;
74213;SDS011;62576;55.694;37.494;2022-08-05T11:03:16;11.13;;;7.90;;
74213;SDS011;62576;55.694;37.494;2022-08-05T11:06:01;11.75;;;8.50;;
74213;SDS011;62576;55.694;37.494;2022-08-05T11:08:31;10.80;;;8.40;;
74213;SDS011;62576;55.694;37.494;2022-08-05T11:11:39;16.30;;;8.40;;
74213;SDS011;62576;55.694;37.494;2022-08-05T11:14:04;12.05;;;8.75;;
74213;SDS011;62576;55.694;37.494;2022-08-05T11:16:33;13.32;;;8.80;;
74213;SDS011;62576;55.694;37.494;2022-08-05T11:22:36;10.23;;;8.45;;
74213;SDS011;62576;55.694;37.494;2022-08-05T11:34:09;13.23;;;9.85;;
74213;SDS011;62576;55.694;37.494;2022-08-05T11:36:21;12.25;;;9.52;;
74213;SDS011;62576;55.694;37.494;2022-08-05T11:39:08;13.57;;;9.35;;
74213;SDS011;62576;55.694;37.494;2022-08-05T11:41:39;10.40;;;9.20;;
74213;SDS011;62576;55.694;37.494;2022-08-05T11:44:12;11.82;;;9.27;;
74213;SDS011;62576;55.694;37.494;2022-08-05T11:49:21;15.10;;;9.23;;
74213;SDS011;62576;55.694;37.494;2022-08-05T11:51:50;19.08;;;9.55;;
74213;SDS011;62576;55.694;37.494;2022-08-05T11:54:23;17.80;;;9.18;;
74213;SDS011;62576;55.694;37.494;2022-08-05T11:56:55;15.02;;;9.15;;
74213;SDS011;62576;55.694;37.494;2022-08-05T11:59:26;13.23;;;9.50;;
74213;SDS011;62576;55.694;37.494;2022-08-05T12:02:04;12.02;;;8.82;;
74213;SDS011;62576;55.694;37.494;2022-08-05T12:09:42;14.37;;;9.00;;
74213;SDS011;62576;55.694;37.494;2022-08-05T12:12:29;14.00;;;8.98;;
74213;SDS011;62576;55.694;37.494;2022-08-05T12:15:00;11.68;;;9.07;;
74213;SDS011;62576;55.694;37.494;2022-08-05T12:17:28;14.45;;;8.85;;
74213;SDS011;62576;55.694;37.494;2022-08-05T12:20:03;15.65;;;9.20;;
74213;SDS011;62576;55.694;37.494;2022-08-05T12:22:34;14.38;;;9.23;;
74213;SDS011;62576;55.694;37.494;2022-08-05T12:25:02;11.43;;;8.65;;
74213;SDS011;62576;55.694;37.494;2022-08-05T12:27:35;15.20;;;9.38;;
74213;SDS011;62576;55.694;37.494;2022-08-05T12:30:08;17.63;;;9.32;;
74213;SDS011;62576;55.694;37.494;2022-08-05T12:32:53;13.63;;;9.57;;
74213;SDS011;62576;55.694;37.494;2022-08-05T12:35:22;14.30;;;9.07;;
74213;SDS011;62576;55.694;37.494;2022-08-05T12:37:51;20.55;;;9.15;;
74213;SDS011;62576;55.694;37.494;2022-08-05T12:40:20;11.23;;;8.98;;
74213;SDS011;62576;55.694;37.494;2022-08-05T12:42:52;12.27;;;8.80;;
74213;SDS011;62576;55.694;37.494;2022-08-05T12:45:20;14.85;;;9.45;;
74213;SDS011;62576;55.694;37.494;2022-08-05T12:47:49;19.40;;;8.80;;
74213;SDS011;62576;55.694;37.494;2022-08-05T12:50:17;11.30;;;9.05;;
74213;SDS011;62576;55.694;37.494;2022-08-05T12:55:34;15.00;;;9.10;;
74213;SDS011;62576;55.694;37.494;2022-08-05T12:58:03;11.05;;;8.40;;
74213;SDS011;62576;55.694;37.494;2022-08-05T13:00:33;11.55;;;8.30;;
74213;SDS011;62576;55.694;37.494;2022-08-05T13:03:09;14.30;;;8.60;;
74213;SDS011;62576;55.694;37.494;2022-08-05T13:05:39;11.95;;;8.38;;
74213;SDS011;62576;55.694;37.494;2022-08-05T13:08:07;11.98;;;8.65;;
74213;SDS011;62576;55.694;37.494;2022-08-05T13:10:41;14.85;;;8.70;;
74213;SDS011;62576;55.694;37.494;2022-08-05T13:13:10;17.17;;;8.48;;
74213;SDS011;62576;55.694;37.494;2022-08-05T13:15:38;9.90;;;7.82;;
74213;SDS011;62576;55.694;37.494;2022-08-05T13:18:07;9.15;;;7.72;;
74213;SDS011;62576;55.694;37.494;2022-08-05T13:20:36;10.48;;;8.15;;
74213;SDS011;62576;55.694;37.494;2022-08-05T13:23:07;12.20;;;8.40;;
74213;SDS011;62576;55.694;37.494;2022-08-05T13:25:36;14.45;;;7.97;;
74213;SDS011;62576;55.694;37.494;2022-08-05T13:28:04;11.85;;;7.85;;
74213;SDS011;62576;55.694;37.494;2022-08-05T13:30:33;9.77;;;7.30;;
74213;SDS011;62576;55.694;37.494;2022-08-05T13:33:02;11.02;;;7.35;;
74213;SDS011;62576;55.694;37.494;2022-08-05T13:35:33;11.50;;;7.28;;
74213;SDS011;62576;55.694;37.494;2022-08-05T13:38:02;12.30;;;7.57;;
74213;SDS011;62576;55.694;37.494;2022-08-05T13:40:30;11.40;;;7.30;;
74213;SDS011;62576;55.694;37.494;2022-08-05T13:42:59;12.15;;;7.38;;
74213;SDS011;62576;55.694;37.494;2022-08-05T13:45:27;11.25;;;7.43;;
74213;SDS011;62576;55.694;37.494;2022-08-05T13:47:56;17.15;;;7.55;;
74213;SDS011;62576;55.694;37.494;2022-08-05T13:50:24;16.08;;;7.70;;
74213;SDS011;62576;55.694;37.494;2022-08-05T13:52:53;13.98;;;7.63;;
74213;SDS011;62576;55.694;37.494;2022-08-05T13:55:22;12.15;;;7.25;;
74213;SDS011;62576;55.694;37.494;2022-08-05T13:57:50;11.43;;;8.05;;
74213;SDS011;62576;55.694;37.494;2022-08-05T14:00:19;14.50;;;7.70;;
74213;SDS011;62576;55.694;37.494;2022-08-05T14:02:48;14.77;;;7.50;;
74213;SDS011;62576;55.694;37.494;2022-08-05T14:05:17;12.98;;;7.72;;
74213;SDS011;62576;55.694;37.494;2022-08-05T14:07:45;12.88;;;7.78;;
74213;SDS011;62576;55.694;37.494;2022-08-05T14:10:15;12.68;;;7.93;;
74213;SDS011;62576;55.694;37.494;2022-08-05T14:12:45;12.45;;;7.68;;
74213;SDS011;62576;55.694;37.494;2022-08-05T14:15:14;11.80;;;7.90;;
74213;SDS011;62576;55.694;37.494;2022-08-05T14:17:52;17.88;;;7.82;;
74213;SDS011;62576;55.694;37.494;2022-08-05T14:20:21;14.02;;;8.10;;
74213;SDS011;62576;55.694;37.494;2022-08-05T14:22:50;14.00;;;8.10;;
74213;SDS011;62576;55.694;37.494;2022-08-05T14:25:18;15.32;;;8.35;;
74213;SDS011;62576;55.694;37.494;2022-08-05T14:27:49;15.53;;;7.80;;
74213;SDS011;62576;55.694;37.494;2022-08-05T14:30:18;13.32;;;7.32;;
74213;SDS011;62576;55.694;37.494;2022-08-05T14:32:47;13.20;;;7.80;;
74213;SDS011;62576;55.694;37.494;2022-08-05T14:35:15;13.55;;;8.00;;
74213;SDS011;62576;55.694;37.494;2022-08-05T14:37:44;14.32;;;8.10;;
74213;SDS011;62576;55.694;37.494;2022-08-05T14:40:12;15.23;;;8.05;;
74213;SDS011;62576;55.694;37.494;2022-08-05T14:42:41;14.85;;;7.75;;
74213;SDS011;62576;55.694;37.494;2022-08-05T14:45:13;12.57;;;7.50;;
74213;SDS011;62576;55.694;37.494;2022-08-05T14:47:41;10.85;;;7.03;;
74213;SDS011;62576;55.694;37.494;2022-08-05T14:50:10;12.38;;;6.93;;
74213;SDS011;62576;55.694;37.494;2022-08-05T14:52:38;9.57;;;6.97;;
74213;SDS011;62576;55.694;37.494;2022-08-05T14:55:07;12.48;;;6.72;;
74213;SDS011;62576;55.694;37.494;2022-08-05T14:57:36;10.05;;;6.82;;
74213;SDS011;62576;55.694;37.494;2022-08-05T15:00:04;10.80;;;6.63;;
74213;SDS011;62576;55.694;37.494;2022-08-05T15:02:33;12.32;;;7.05;;
74213;SDS011;62576;55.694;37.494;2022-08-05T15:05:02;11.48;;;6.93;;
74213;SDS011;62576;55.694;37.494;2022-08-05T15:07:30;9.85;;;6.80;;
74213;SDS011;62576;55.694;37.494;2022-08-05T15:09:59;10.05;;;6.90;;
74213;SDS011;62576;55.694;37.494;2022-08-05T15:12:29;18.55;;;7.22;;
74213;SDS011;62576;55.694;37.494;2022-08-05T15:15:02;10.23;;;6.80;;
74213;SDS011;62576;55.694;37.494;2022-08-05T15:17:31;9.45;;;6.97;;
74213;SDS011;62576;55.694;37.494;2022-08-05T15:20:00;13.00;;;6.60;;
74213;SDS011;62576;55.694;37.494;2022-08-05T15:22:29;12.50;;;8.20;;
74213;SDS011;62576;55.694;37.494;2022-08-05T15:24:57;9.82;;;6.93;;